Time;durP1;ratioP1;P1;durP2;ratioP2;P2;SDS_P1;SDS_P2;PMS_P1;PMS_P2;Temp;Humidity;BMP_temperature;BMP_pressure;BME280_temperature;BME280_humidity;BME280_pressure;Samples;Min_cycle;Max_cycle;Signal;HPM_P1;HPM_P2
2023/03/24 00:01:56;;;;;;;9.85;2.78;;;;;;;;;;5014769;28;20026;-21
2023/03/24 00:04:23;;;;;;;14.30;2.60;;;;;;;;;;5018552;28;20053;-21
2023/03/24 00:06:51;;;;;;;10.10;2.88;;;;;;;;;;5021277;28;20087;-22
2023/03/24 00:09:17;;;;;;;6.43;2.45;;;;;;;;;;5021315;28;20087;-21
2023/03/24 00:11:44;;;;;;;7.60;2.83;;;;;;;;;;5021152;28;20056;-21
2023/03/24 00:14:13;;;;;;;9.07;2.50;;;;;;;;;;5021252;28;20017;-22
2023/03/24 00:16:44;;;;;;;6.93;2.78;;;;;;;;;;5021217;28;20030;-20
2023/03/24 00:19:12;;;;;;;10.02;2.83;;;;;;;;;;5021452;28;20134;-24
2023/03/24 00:21:38;;;;;;;9.40;3.13;;;;;;;;;;5021477;28;20071;-23
2023/03/24 00:24:08;;;;;;;7.07;2.10;;;;;;;;;;5021093;28;20022;-21
2023/03/24 00:26:38;;;;;;;7.60;2.80;;;;;;;;;;5021116;28;20365;-21
2023/03/24 00:29:06;;;;;;;6.60;2.20;;;;;;;;;;5021652;28;20029;-21
2023/03/24 00:31:32;;;;;;;6.88;2.90;;;;;;;;;;5021107;28;20030;-21
2023/03/24 00:34:01;;;;;;;8.65;3.78;;;;;;;;;;5020906;28;20029;-22
2023/03/24 00:36:27;;;;;;;6.47;2.88;;;;;;;;;;5021001;28;20067;-21
2023/03/24 00:38:54;;;;;;;6.50;3.22;;;;;;;;;;5020895;28;20065;-22
2023/03/24 00:41:20;;;;;;;13.73;2.67;;;;;;;;;;5021317;28;20026;-21
2023/03/24 00:43:47;;;;;;;4.97;2.22;;;;;;;;;;5020900;28;20046;-21
2023/03/24 00:46:26;;;;;;;5.25;2.50;;;;;;;;;;5020958;28;20026;-24
2023/03/24 00:48:56;;;;;;;7.18;2.40;;;;;;;;;;5021199;28;20144;-23
2023/03/24 00:51:23;;;;;;;5.80;2.08;;;;;;;;;;5021157;28;20025;-22
2023/03/24 00:53:49;;;;;;;5.88;2.70;;;;;;;;;;5020830;28;20095;-24
2023/03/24 00:56:15;;;;;;;9.65;2.45;;;;;;;;;;5021157;28;20037;-21
2023/03/24 00:58:42;;;;;;;3.80;2.15;;;;;;;;;;5020851;28;20026;-22
2023/03/24 01:01:08;;;;;;;5.20;2.70;;;;;;;;;;5021349;28;20487;-22
2023/03/24 01:03:42;;;;;;;3.55;2.33;;;;;;;;;;5020533;28;20053;-23
2023/03/24 01:06:08;;;;;;;4.65;2.28;;;;;;;;;;5021102;28;20033;-24
2023/03/24 01:08:34;;;;;;;10.98;3.08;;;;;;;;;;5021296;28;20030;-24
2023/03/24 01:11:00;;;;;;;8.35;4.18;;;;;;;;;;5020734;28;20041;-23
2023/03/24 01:13:28;;;;;;;10.15;2.30;;;;;;;;;;5020645;28;20058;-22
2023/03/24 01:15:55;;;;;;;3.47;2.50;;;;;;;;;;5018192;28;20105;-22
2023/03/24 01:18:24;;;;;;;4.63;2.35;;;;;;;;;;5017598;28;20026;-21
2023/03/24 01:20:51;;;;;;;3.85;2.13;;;;;;;;;;5017423;28;20030;-22
2023/03/24 01:23:19;;;;;;;6.57;2.45;;;;;;;;;;5017676;28;20396;-24
2023/03/24 01:25:47;;;;;;;11.25;2.67;;;;;;;;;;5017449;28;20030;-21
2023/03/24 01:28:14;;;;;;;5.47;2.80;;;;;;;;;;5017662;28;20356;-22
2023/03/24 01:30:40;;;;;;;4.50;2.05;;;;;;;;;;5017297;28;20441;-21
2023/03/24 01:33:07;;;;;;;8.95;2.33;;;;;;;;;;5017262;28;20368;-24
2023/03/24 01:35:33;;;;;;;9.10;2.15;;;;;;;;;;5017252;28;20037;-22
2023/03/24 01:37:59;;;;;;;3.03;2.10;;;;;;;;;;5017235;28;20117;-22
2023/03/24 01:40:30;;;;;;;5.20;1.88;;;;;;;;;;5017132;28;20041;-22
2023/03/24 01:42:56;;;;;;;4.00;2.03;;;;;;;;;;5017326;28;20095;-21
2023/03/24 01:45:43;;;;;;;8.45;3.55;;;;;;;;;;5017061;28;20043;-21
2023/03/24 01:48:25;;;;;;;3.72;2.40;;;;;;;;;;5017098;28;20026;-26
2023/03/24 01:51:00;;;;;;;6.45;2.03;;;;;;;;;;5016995;28;20072;-22
2023/03/24 01:53:27;;;;;;;5.00;2.28;;;;;;;;;;4999640;28;20061;-21
2023/03/24 01:55:54;;;;;;;5.15;1.83;;;;;;;;;;4999622;28;20052;-22
2023/03/24 01:58:20;;;;;;;4.07;2.63;;;;;;;;;;5016818;28;20029;-23
2023/03/24 02:00:46;;;;;;;6.60;2.30;;;;;;;;;;5016986;28;20037;-21
2023/03/24 02:03:17;;;;;;;5.57;2.47;;;;;;;;;;5016456;28;20465;-22
2023/03/24 02:05:44;;;;;;;3.45;2.00;;;;;;;;;;5016753;28;20025;-29
2023/03/24 02:08:21;;;;;;;5.72;2.42;;;;;;;;;;5016566;28;20137;-24
2023/03/24 02:10:47;;;;;;;3.35;2.67;;;;;;;;;;5017190;28;20078;-22
2023/03/24 02:13:13;;;;;;;5.20;2.05;;;;;;;;;;5016449;28;20040;-21
2023/03/24 02:15:52;;;;;;;10.43;3.30;;;;;;;;;;5016538;28;20109;-24
2023/03/24 02:18:26;;;;;;;5.43;3.38;;;;;;;;;;5017098;28;20022;-24
2023/03/24 02:21:05;;;;;;;3.63;2.22;;;;;;;;;;5016681;28;20033;-22
2023/03/24 02:23:57;;;;;;;5.93;1.77;;;;;;;;;;5016522;28;20026;-21
2023/03/24 02:26:30;;;;;;;4.97;2.58;;;;;;;;;;5016213;28;20061;-22
2023/03/24 02:29:24;;;;;;;3.25;2.20;;;;;;;;;;5016199;28;20025;-27
2023/03/24 02:32:03;;;;;;;8.00;1.67;;;;;;;;;;5016431;28;20322;-22
2023/03/24 02:34:35;;;;;;;3.40;1.90;;;;;;;;;;5016477;28;20018;-21
2023/03/24 02:37:07;;;;;;;5.45;2.33;;;;;;;;;;5016105;28;20145;-22
2023/03/24 02:39:42;;;;;;;6.22;2.70;;;;;;;;;;5016029;28;20022;-23
2023/03/24 02:42:17;;;;;;;5.90;2.42;;;;;;;;;;5016030;28;20330;-21
2023/03/24 02:44:56;;;;;;;3.95;2.08;;;;;;;;;;5016272;28;20037;-23
2023/03/24 02:47:30;;;;;;;3.30;1.98;;;;;;;;;;5015942;28;20034;-22
2023/03/24 02:50:02;;;;;;;6.90;1.95;;;;;;;;;;5016495;28;20334;-22
2023/03/24 02:52:38;;;;;;;4.30;1.90;;;;;;;;;;5015784;28;20026;-26
2023/03/24 02:55:13;;;;;;;4.40;2.10;;;;;;;;;;5016091;28;20358;-22
2023/03/24 02:57:43;;;;;;;4.20;1.95;;;;;;;;;;5015798;28;20034;-22
2023/03/24 03:00:16;;;;;;;2.47;2.08;;;;;;;;;;5015683;28;20373;-24
2023/03/24 03:02:48;;;;;;;3.25;1.85;;;;;;;;;;4994944;28;20040;-23
2023/03/24 03:05:17;;;;;;;3.80;2.15;;;;;;;;;;4996255;28;20033;-21
2023/03/24 03:07:44;;;;;;;3.35;2.40;;;;;;;;;;4996235;28;20034;-24
2023/03/24 03:10:15;;;;;;;4.22;2.20;;;;;;;;;;4995960;28;20033;-24
2023/03/24 03:12:42;;;;;;;1.88;1.73;;;;;;;;;;4996160;28;20022;-21
2023/03/24 03:15:11;;;;;;;2.88;1.60;;;;;;;;;;4995847;28;20061;-24
2023/03/24 03:17:40;;;;;;;5.60;2.10;;;;;;;;;;4995825;28;20042;-21
2023/03/24 03:20:09;;;;;;;5.70;2.00;;;;;;;;;;4995718;28;20040;-22
2023/03/24 03:22:48;;;;;;;1.98;1.80;;;;;;;;;;4995644;28;20026;-23
2023/03/24 03:25:16;;;;;;;2.95;1.88;;;;;;;;;;4995974;28;20023;-22
2023/03/24 03:27:45;;;;;;;3.20;1.73;;;;;;;;;;4995586;28;20133;-22
2023/03/24 03:30:24;;;;;;;5.35;1.90;;;;;;;;;;4995871;28;20060;-22
2023/03/24 03:32:54;;;;;;;3.88;2.70;;;;;;;;;;4996054;28;20462;-21
2023/03/24 03:35:28;;;;;;;5.60;2.33;;;;;;;;;;4995889;28;20026;-21
2023/03/24 03:37:59;;;;;;;4.78;2.13;;;;;;;;;;4995144;28;20088;-22
2023/03/24 03:40:36;;;;;;;4.05;2.00;;;;;;;;;;4995594;28;20038;-22
2023/03/24 03:43:02;;;;;;;5.18;2.47;;;;;;;;;;4995949;28;20343;-23
2023/03/24 03:45:28;;;;;;;3.60;1.98;;;;;;;;;;4995671;28;20045;-21
2023/03/24 03:47:55;;;;;;;2.50;1.85;;;;;;;;;;4995381;28;20025;-23
2023/03/24 03:50:21;;;;;;;3.85;1.77;;;;;;;;;;4995571;28;20026;-21
2023/03/24 03:52:47;;;;;;;2.83;1.83;;;;;;;;;;4995526;28;20030;-23
2023/03/24 03:55:14;;;;;;;4.13;1.95;;;;;;;;;;4995255;28;20034;-25
2023/03/24 03:57:40;;;;;;;4.45;2.03;;;;;;;;;;4995275;28;20026;-21
2023/03/24 04:00:14;;;;;;;5.00;1.90;;;;;;;;;;4995424;28;20037;-21
2023/03/24 04:02:46;;;;;;;2.72;1.77;;;;;;;;;;5000432;28;20037;-21
2023/03/24 04:05:28;;;;;;;3.75;2.22;;;;;;;;;;5014743;28;20112;-27
2023/03/24 04:08:06;;;;;;;2.83;1.42;;;;;;;;;;5015030;28;20022;-21
2023/03/24 04:10:55;;;;;;;3.03;1.77;;;;;;;;;;5014714;28;20044;-22
2023/03/24 04:13:49;;;;;;;1.85;1.38;;;;;;;;;;5004465;28;20046;-21
2023/03/24 04:16:27;;;;;;;2.05;1.52;;;;;;;;;;5014656;28;20041;-21
2023/03/24 04:19:01;;;;;;;2.90;1.85;;;;;;;;;;5014642;28;20032;-23
2023/03/24 04:21:47;;;;;;;1.95;1.52;;;;;;;;;;5014949;28;20414;-23
2023/03/24 04:24:36;;;;;;;2.42;1.85;;;;;;;;;;5014668;28;20026;-21
2023/03/24 04:27:10;;;;;;;4.60;2.13;;;;;;;;;;5014425;28;20026;-22
2023/03/24 04:29:45;;;;;;;4.22;2.33;;;;;;;;;;5014858;28;20365;-22
2023/03/24 04:32:18;;;;;;;3.33;1.95;;;;;;;;;;5014774;28;20038;-22
2023/03/24 04:34:49;;;;;;;2.28;1.80;;;;;;;;;;5014569;28;20105;-21
2023/03/24 04:37:20;;;;;;;3.28;2.38;;;;;;;;;;5014489;28;20042;-21
2023/03/24 04:39:48;;;;;;;2.10;1.80;;;;;;;;;;5014594;28;20457;-22
2023/03/24 04:42:19;;;;;;;4.32;2.78;;;;;;;;;;5014599;28;20364;-23
2023/03/24 04:44:45;;;;;;;2.75;1.88;;;;;;;;;;5014666;28;20034;-24
2023/03/24 04:47:12;;;;;;;2.72;1.50;;;;;;;;;;5014345;28;20093;-26
2023/03/24 04:49:38;;;;;;;2.35;1.98;;;;;;;;;;5014312;28;20037;-21
2023/03/24 04:52:05;;;;;;;2.30;1.85;;;;;;;;;;5017491;28;20026;-23
2023/03/24 04:54:32;;;;;;;1.90;1.80;;;;;;;;;;5017994;28;20086;-21
2023/03/24 04:57:00;;;;;;;4.38;1.70;;;;;;;;;;5001833;28;20049;-22
2023/03/24 04:59:26;;;;;;;2.40;1.70;;;;;;;;;;5017836;28;20457;-26
2023/03/24 05:01:52;;;;;;;1.67;1.58;;;;;;;;;;5018045;28;20089;-25
2023/03/24 05:04:20;;;;;;;5.35;2.03;;;;;;;;;;5017640;28;20050;-22
2023/03/24 05:06:48;;;;;;;3.47;2.10;;;;;;;;;;5017787;28;20053;-24
2023/03/24 05:09:14;;;;;;;2.58;1.65;;;;;;;;;;5018259;28;20445;-22
2023/03/24 05:11:40;;;;;;;3.67;2.65;;;;;;;;;;5017956;28;20093;-22
2023/03/24 05:14:07;;;;;;;4.28;2.05;;;;;;;;;;5000246;28;20069;-26
2023/03/24 05:16:33;;;;;;;5.53;2.10;;;;;;;;;;5017609;28;20056;-21
2023/03/24 05:19:00;;;;;;;1.60;1.40;;;;;;;;;;5017740;28;20334;-23
2023/03/24 05:21:26;;;;;;;4.30;1.88;;;;;;;;;;5017754;28;20461;-21
2023/03/24 05:23:52;;;;;;;3.28;2.00;;;;;;;;;;5017329;28;20026;-22
2023/03/24 05:26:19;;;;;;;2.05;1.85;;;;;;;;;;5017909;28;20104;-23
2023/03/24 05:28:45;;;;;;;2.15;1.88;;;;;;;;;;4999990;28;20022;-24
2023/03/24 05:31:11;;;;;;;4.18;2.10;;;;;;;;;;5017217;28;20101;-24
2023/03/24 05:33:38;;;;;;;3.08;1.92;;;;;;;;;;5017199;28;20053;-24
2023/03/24 05:36:04;;;;;;;4.88;1.80;;;;;;;;;;5016958;28;20029;-23
2023/03/24 05:38:30;;;;;;;5.07;1.77;;;;;;;;;;5016976;28;20437;-25
2023/03/24 05:41:00;;;;;;;3.80;1.55;;;;;;;;;;5017134;28;20361;-23
2023/03/24 05:43:26;;;;;;;2.78;1.88;;;;;;;;;;5016813;28;20041;-23
2023/03/24 05:45:52;;;;;;;2.75;1.55;;;;;;;;;;4999738;28;20041;-26
2023/03/24 05:48:19;;;;;;;2.63;1.90;;;;;;;;;;5017180;28;20089;-24
2023/03/24 05:50:46;;;;;;;3.40;2.33;;;;;;;;;;5017025;28;20029;-22
2023/03/24 05:53:12;;;;;;;2.83;1.80;;;;;;;;;;5016608;28;20083;-23
2023/03/24 05:55:39;;;;;;;4.60;1.80;;;;;;;;;;5016734;28;20026;-24
2023/03/24 05:58:05;;;;;;;4.07;1.75;;;;;;;;;;5017537;28;20034;-23
2023/03/24 06:00:32;;;;;;;2.17;1.83;;;;;;;;;;4999366;28;20065;-26
2023/03/24 06:02:59;;;;;;;6.95;2.20;;;;;;;;;;5015978;28;20413;-23
2023/03/24 06:05:25;;;;;;;3.42;2.20;;;;;;;;;;5016556;28;20025;-23
2023/03/24 06:07:57;;;;;;;5.55;2.28;;;;;;;;;;5016470;28;20065;-24
2023/03/24 06:10:25;;;;;;;8.93;2.45;;;;;;;;;;5016457;28;20115;-23
2023/03/24 06:12:51;;;;;;;2.50;1.88;;;;;;;;;;5016640;28;20287;-23
2023/03/24 06:15:17;;;;;;;2.85;2.25;;;;;;;;;;5016594;28;20030;-22
2023/03/24 06:17:45;;;;;;;2.92;1.77;;;;;;;;;;5016378;28;20105;-21
2023/03/24 06:20:15;;;;;;;5.45;1.90;;;;;;;;;;5016325;28;20030;-21
2023/03/24 06:22:43;;;;;;;3.40;2.17;;;;;;;;;;4998933;28;20515;-21
2023/03/24 06:25:10;;;;;;;7.57;2.40;;;;;;;;;;5016160;28;20121;-21
2023/03/24 06:27:36;;;;;;;9.05;2.38;;;;;;;;;;5016104;28;20025;-21
2023/03/24 06:30:02;;;;;;;6.15;2.17;;;;;;;;;;5016337;28;20088;-21
2023/03/24 06:32:28;;;;;;;4.78;1.70;;;;;;;;;;5016095;28;20040;-21
2023/03/24 06:34:55;;;;;;;4.85;1.70;;;;;;;;;;5016062;28;20069;-24
2023/03/24 06:37:21;;;;;;;3.30;1.90;;;;;;;;;;5016331;28;20041;-23
2023/03/24 06:39:48;;;;;;;5.82;2.15;;;;;;;;;;5015964;28;20025;-21
2023/03/24 06:42:15;;;;;;;5.20;2.03;;;;;;;;;;5015909;28;20080;-20
2023/03/24 06:44:41;;;;;;;5.78;2.13;;;;;;;;;;5016708;28;20037;-21
2023/03/24 06:47:07;;;;;;;5.45;2.33;;;;;;;;;;5015862;28;20101;-23
2023/03/24 06:49:35;;;;;;;5.20;1.90;;;;;;;;;;5016044;28;20041;-23
2023/03/24 06:52:02;;;;;;;4.32;2.63;;;;;;;;;;5015995;28;20061;-23
2023/03/24 06:54:28;;;;;;;3.75;2.05;;;;;;;;;;5015649;28;20028;-23
2023/03/24 06:56:55;;;;;;;4.18;2.17;;;;;;;;;;5015942;28;20036;-21
2023/03/24 06:59:23;;;;;;;2.47;1.80;;;;;;;;;;5015906;28;20029;-21
2023/03/24 07:01:50;;;;;;;6.03;2.47;;;;;;;;;;5015840;28;20042;-24
2023/03/24 07:04:17;;;;;;;4.22;1.98;;;;;;;;;;5015311;28;20055;-25
2023/03/24 07:06:44;;;;;;;7.43;2.33;;;;;;;;;;5015951;28;20101;-21
2023/03/24 07:09:11;;;;;;;4.47;1.73;;;;;;;;;;5015389;28;20068;-21
2023/03/24 07:11:37;;;;;;;7.15;2.22;;;;;;;;;;5015445;28;20026;-22
2023/03/24 07:14:03;;;;;;;5.78;2.17;;;;;;;;;;5014476;28;20025;-20
2023/03/24 07:16:30;;;;;;;5.63;2.25;;;;;;;;;;5015829;28;20022;-25
2023/03/24 07:18:56;;;;;;;2.92;1.80;;;;;;;;;;5015271;28;20030;-21
2023/03/24 07:21:22;;;;;;;3.22;1.90;;;;;;;;;;5015713;28;20044;-22
2023/03/24 07:23:48;;;;;;;6.90;3.15;;;;;;;;;;5015174;28;20025;-21
2023/03/24 07:26:15;;;;;;;8.55;2.25;;;;;;;;;;5015151;28;20109;-23
2023/03/24 07:28:41;;;;;;;8.23;2.10;;;;;;;;;;5015342;28;20030;-24
2023/03/24 07:31:09;;;;;;;8.00;1.92;;;;;;;;;;5014911;28;20030;-24
2023/03/24 07:33:37;;;;;;;4.90;2.25;;;;;;;;;;5015285;28;20334;-27
2023/03/24 07:36:03;;;;;;;8.52;2.50;;;;;;;;;;5015275;28;20030;-21
2023/03/24 07:38:30;;;;;;;2.67;2.15;;;;;;;;;;4997729;28;20036;-20
2023/03/24 07:40:58;;;;;;;6.47;2.25;;;;;;;;;;5015053;28;20291;-21
2023/03/24 07:43:25;;;;;;;3.30;2.10;;;;;;;;;;5014628;28;20022;-21
2023/03/24 07:45:51;;;;;;;7.07;2.38;;;;;;;;;;5014650;28;20361;-22
2023/03/24 07:48:17;;;;;;;5.25;2.13;;;;;;;;;;5015260;28;20022;-20
2023/03/24 07:50:44;;;;;;;4.38;2.70;;;;;;;;;;5014809;28;20037;-22
2023/03/24 07:53:10;;;;;;;5.82;2.42;;;;;;;;;;5014936;28;20342;-29
2023/03/24 07:55:37;;;;;;;4.57;2.30;;;;;;;;;;5014578;28;20026;-21
2023/03/24 07:58:03;;;;;;;5.50;2.13;;;;;;;;;;5014872;28;20449;-21
2023/03/24 08:00:31;;;;;;;2.95;2.00;;;;;;;;;;5014824;28;20393;-20
2023/03/24 08:02:58;;;;;;;4.38;2.63;;;;;;;;;;4997135;28;20038;-22
2023/03/24 08:05:26;;;;;;;5.40;2.35;;;;;;;;;;5014617;28;20100;-23
2023/03/24 08:07:52;;;;;;;8.90;2.65;;;;;;;;;;5014967;28;20466;-25
2023/03/24 08:10:20;;;;;;;4.45;2.22;;;;;;;;;;5014853;28;20040;-22
2023/03/24 08:12:46;;;;;;;10.82;2.45;;;;;;;;;;5014735;28;20053;-24
2023/03/24 08:15:13;;;;;;;2.92;2.00;;;;;;;;;;5014863;28;20034;-22
2023/03/24 08:17:40;;;;;;;5.95;2.17;;;;;;;;;;5014809;28;20112;-25
2023/03/24 08:20:09;;;;;;;7.97;2.67;;;;;;;;;;5014420;28;20033;-27
2023/03/24 08:22:38;;;;;;;4.03;1.90;;;;;;;;;;5014610;28;20033;-22
2023/03/24 08:25:04;;;;;;;6.20;2.22;;;;;;;;;;5016008;28;20475;-22
2023/03/24 08:27:30;;;;;;;6.13;2.10;;;;;;;;;;5018642;28;20026;-22
2023/03/24 08:29:57;;;;;;;3.38;2.20;;;;;;;;;;5018436;28;20026;-23
2023/03/24 08:32:23;;;;;;;2.03;1.83;;;;;;;;;;5018717;28;20041;-22
2023/03/24 08:34:49;;;;;;;5.43;2.03;;;;;;;;;;5018728;28;20034;-22
2023/03/24 08:37:15;;;;;;;6.13;2.00;;;;;;;;;;5018137;28;20044;-22
2023/03/24 08:39:41;;;;;;;4.65;1.85;;;;;;;;;;5018241;28;20029;-26
2023/03/24 08:42:07;;;;;;;5.10;2.30;;;;;;;;;;5018291;28;20061;-22
2023/03/24 08:44:33;;;;;;;6.75;2.03;;;;;;;;;;5018102;28;20147;-27
2023/03/24 08:47:02;;;;;;;3.28;2.05;;;;;;;;;;5018080;28;20109;-26
2023/03/24 08:49:29;;;;;;;12.02;2.40;;;;;;;;;;5017946;28;20385;-23
2023/03/24 08:51:55;;;;;;;6.43;2.83;;;;;;;;;;5017799;28;20336;-24
2023/03/24 08:54:22;;;;;;;5.03;2.53;;;;;;;;;;5018247;28;20026;-24
2023/03/24 08:56:49;;;;;;;7.47;2.50;;;;;;;;;;5000572;28;20054;-22
2023/03/24 08:59:15;;;;;;;5.65;3.63;;;;;;;;;;5000399;28;20029;-23
2023/03/24 09:01:42;;;;;;;7.55;1.95;;;;;;;;;;5017560;28;20084;-22
2023/03/24 09:04:08;;;;;;;4.80;2.58;;;;;;;;;;5017408;28;20129;-24
2023/03/24 09:06:34;;;;;;;6.55;2.30;;;;;;;;;;5017915;28;20044;-23
2023/03/24 09:09:00;;;;;;;4.68;2.00;;;;;;;;;;5017906;28;20022;-24
2023/03/24 09:11:27;;;;;;;5.50;2.15;;;;;;;;;;5000295;28;20069;-25
2023/03/24 09:13:53;;;;;;;5.97;2.33;;;;;;;;;;5017461;28;20029;-23
2023/03/24 09:16:20;;;;;;;7.05;2.10;;;;;;;;;;5017538;28;20076;-22
2023/03/24 09:18:46;;;;;;;3.50;2.40;;;;;;;;;;5017421;28;20069;-22
2023/03/24 09:21:13;;;;;;;5.32;2.72;;;;;;;;;;5017221;28;20488;-23
2023/03/24 09:23:39;;;;;;;5.63;4.00;;;;;;;;;;5017375;28;20022;-22
2023/03/24 09:26:06;;;;;;;3.35;1.85;;;;;;;;;;5017984;28;20022;-22
2023/03/24 09:28:32;;;;;;;11.57;2.70;;;;;;;;;;5017433;28;20113;-22
2023/03/24 09:30:59;;;;;;;7.32;2.50;;;;;;;;;;5017926;28;20026;-27
2023/03/24 09:33:25;;;;;;;7.75;3.17;;;;;;;;;;5017515;28;20030;-22
2023/03/24 09:35:58;;;;;;;10.32;3.58;;;;;;;;;;5016494;28;20026;-22
2023/03/24 09:38:25;;;;;;;7.95;2.28;;;;;;;;;;5016838;28;20045;-23
2023/03/24 09:40:55;;;;;;;7.22;2.55;;;;;;;;;;5016841;28;20026;-24
2023/03/24 09:43:21;;;;;;;8.52;2.22;;;;;;;;;;5016875;28;20037;-22
2023/03/24 09:45:52;;;;;;;6.57;2.83;;;;;;;;;;5017086;28;20026;-23
2023/03/24 09:48:20;;;;;;;7.85;2.92;;;;;;;;;;5017151;28;20022;-31
2023/03/24 09:51:13;;;;;;;9.57;3.47;;;;;;;;;;5016806;28;20033;-31
2023/03/24 09:53:46;;;;;;;6.05;2.20;;;;;;;;;;5013294;28;20040;-23
2023/03/24 09:56:17;;;;;;;3.35;1.90;;;;;;;;;;4999507;28;20096;-27
2023/03/24 09:58:45;;;;;;;6.75;2.65;;;;;;;;;;5016681;28;20053;-22
2023/03/24 10:01:13;;;;;;;4.93;2.08;;;;;;;;;;5016617;28;20052;-25
2023/03/24 10:03:39;;;;;;;5.35;2.20;;;;;;;;;;5016455;28;20045;-23
2023/03/24 10:06:11;;;;;;;3.90;2.20;;;;;;;;;;4999884;28;20104;-23
2023/03/24 10:08:37;;;;;;;5.43;2.35;;;;;;;;;;5016452;28;20092;-24
2023/03/24 10:11:07;;;;;;;3.08;2.10;;;;;;;;;;5016654;28;20057;-23
2023/03/24 10:13:52;;;;;;;5.32;1.95;;;;;;;;;;5016403;28;20029;-24
2023/03/24 10:16:23;;;;;;;4.53;1.85;;;;;;;;;;4999152;28;20480;-24
2023/03/24 10:18:57;;;;;;;6.63;2.38;;;;;;;;;;5016353;28;20045;-25
2023/03/24 10:21:27;;;;;;;3.97;1.65;;;;;;;;;;5016763;28;20022;-23
2023/03/24 10:24:12;;;;;;;7.05;2.50;;;;;;;;;;5015987;28;20061;-22
2023/03/24 10:26:58;;;;;;;7.47;2.60;;;;;;;;;;5016018;28;20037;-23
2023/03/24 10:29:26;;;;;;;5.93;2.70;;;;;;;;;;5016275;28;20326;-22
2023/03/24 10:31:56;;;;;;;5.65;2.38;;;;;;;;;;5015933;28;20357;-21
2023/03/24 10:34:26;;;;;;;9.13;2.95;;;;;;;;;;5016497;28;20459;-24
2023/03/24 10:36:52;;;;;;;13.00;2.50;;;;;;;;;;5015835;28;20405;-22
2023/03/24 10:39:19;;;;;;;7.30;2.75;;;;;;;;;;5015954;28;20091;-21
2023/03/24 10:41:45;;;;;;;8.13;3.38;;;;;;;;;;4998242;28;20124;-23
2023/03/24 10:44:12;;;;;;;4.47;2.45;;;;;;;;;;5015652;28;20022;-22
2023/03/24 10:46:42;;;;;;;8.65;3.40;;;;;;;;;;5015515;28;20097;-22
2023/03/24 10:49:13;;;;;;;6.28;2.88;;;;;;;;;;5015946;28;20080;-22
2023/03/24 10:51:45;;;;;;;2.67;2.20;;;;;;;;;;5015573;28;20041;-25
2023/03/24 10:54:14;;;;;;;4.78;2.45;;;;;;;;;;5015566;28;20059;-22
2023/03/24 10:56:45;;;;;;;2.63;1.90;;;;;;;;;;5015554;28;20164;-23
2023/03/24 10:59:27;;;;;;;4.35;2.08;;;;;;;;;;4997855;28;20033;-22
2023/03/24 11:02:01;;;;;;;7.32;2.08;;;;;;;;;;5015072;28;20116;-21
2023/03/24 11:04:29;;;;;;;8.70;3.65;;;;;;;;;;4976150;28;20035;-21
2023/03/24 11:07:02;;;;;;;8.57;2.35;;;;;;;;;;4976265;28;20027;-25
2023/03/24 11:09:31;;;;;;;6.68;2.63;;;;;;;;;;4976218;28;20038;-25
2023/03/24 11:12:02;;;;;;;10.27;2.78;;;;;;;;;;4975138;28;20027;-21
2023/03/24 11:14:29;;;;;;;8.07;2.75;;;;;;;;;;4976300;28;20117;-24
2023/03/24 11:17:14;;;;;;;3.95;2.25;;;;;;;;;;4976066;28;20530;-21
2023/03/24 11:19:50;;;;;;;5.65;3.25;;;;;;;;;;4976388;28;20109;-23
2023/03/24 11:22:16;;;;;;;7.82;2.33;;;;;;;;;;4976127;28;20045;-24
2023/03/24 11:24:42;;;;;;;13.50;3.03;;;;;;;;;;4976041;28;20085;-23
2023/03/24 11:27:12;;;;;;;11.32;2.70;;;;;;;;;;4976078;28;20027;-24
2023/03/24 11:29:39;;;;;;;10.63;2.75;;;;;;;;;;4975708;28;20446;-21
2023/03/24 11:32:12;;;;;;;8.18;2.70;;;;;;;;;;4975875;28;20030;-24
2023/03/24 11:34:41;;;;;;;7.35;3.30;;;;;;;;;;4975706;28;20031;-23
2023/03/24 11:37:13;;;;;;;10.50;2.50;;;;;;;;;;4975769;28;20065;-23
2023/03/24 11:39:39;;;;;;;5.85;2.60;;;;;;;;;;4976003;28;20026;-23
2023/03/24 11:42:11;;;;;;;11.98;2.63;;;;;;;;;;4975912;28;20034;-22
2023/03/24 11:44:37;;;;;;;11.80;3.85;;;;;;;;;;4975716;28;20026;-21
2023/03/24 11:47:23;;;;;;;6.97;2.80;;;;;;;;;;4975503;28;20037;-21
2023/03/24 11:50:15;;;;;;;4.28;2.38;;;;;;;;;;4975783;28;20077;-21
2023/03/24 11:52:56;;;;;;;9.52;2.80;;;;;;;;;;4970943;28;20038;-26
2023/03/24 11:55:35;;;;;;;8.50;3.35;;;;;;;;;;4975630;28;20357;-24
2023/03/24 11:58:03;;;;;;;11.40;2.70;;;;;;;;;;4975921;28;20037;-21
2023/03/24 12:00:32;;;;;;;13.38;3.17;;;;;;;;;;4975256;28;20034;-22
2023/03/24 12:03:04;;;;;;;5.55;2.50;;;;;;;;;;4990307;28;20077;-22
2023/03/24 12:05:32;;;;;;;5.30;2.22;;;;;;;;;;5015148;28;20022;-22
2023/03/24 12:08:05;;;;;;;9.02;2.33;;;;;;;;;;5015113;28;20087;-23
2023/03/24 12:10:44;;;;;;;5.25;2.88;;;;;;;;;;5014587;28;20026;-21
2023/03/24 12:13:25;;;;;;;5.30;2.83;;;;;;;;;;5014689;28;20028;-21
2023/03/24 12:15:51;;;;;;;7.63;2.30;;;;;;;;;;5014662;28;20022;-21
2023/03/24 12:18:40;;;;;;;3.60;2.40;;;;;;;;;;5014577;28;20104;-24
2023/03/24 12:21:09;;;;;;;5.60;2.10;;;;;;;;;;4978095;28;20041;-22
2023/03/24 12:23:42;;;;;;;9.75;2.88;;;;;;;;;;5014119;28;20033;-24
2023/03/24 12:26:20;;;;;;;6.15;2.28;;;;;;;;;;5014214;28;20026;-25
2023/03/24 12:28:46;;;;;;;7.43;2.33;;;;;;;;;;5014506;28;20021;-22
2023/03/24 12:31:19;;;;;;;14.38;2.90;;;;;;;;;;5014255;28;20038;-22
2023/03/24 12:34:02;;;;;;;7.05;2.55;;;;;;;;;;5013953;28;20109;-22
2023/03/24 12:36:36;;;;;;;8.07;2.50;;;;;;;;;;5014368;28;20041;-22
2023/03/24 12:39:08;;;;;;;7.82;3.22;;;;;;;;;;5014047;28;20052;-22
2023/03/24 12:41:39;;;;;;;7.15;2.08;;;;;;;;;;4996619;28;20057;-26
2023/03/24 12:44:05;;;;;;;;;;;;;;;;;;5014600;28;20026;-22
2023/03/24 12:46:31;;;;;;;5.80;2.40;;;;;;;;;;5013911;28;20024;-26
2023/03/24 12:49:22;;;;;;;6.72;2.38;;;;;;;;;;4996551;28;20118;-26
2023/03/24 12:51:54;;;;;;;4.55;2.17;;;;;;;;;;4997193;28;20125;-21
2023/03/24 12:54:39;;;;;;;8.18;2.30;;;;;;;;;;5013902;28;20034;-25
2023/03/24 12:57:08;;;;;;;6.43;2.13;;;;;;;;;;5014151;28;20346;-23
2023/03/24 12:59:40;;;;;;;9.38;2.00;;;;;;;;;;5014015;28;20080;-25
2023/03/24 13:02:16;;;;;;;11.27;3.08;;;;;;;;;;5013639;28;20097;-25
2023/03/24 13:04:45;;;;;;;7.80;1.90;;;;;;;;;;4996630;28;20026;-24
2023/03/24 13:07:13;;;;;;;12.20;4.97;;;;;;;;;;5013852;28;20018;-25
2023/03/24 13:09:44;;;;;;;5.43;2.22;;;;;;;;;;5014104;28;20026;-22
2023/03/24 13:12:27;;;;;;;5.20;2.88;;;;;;;;;;5015437;28;20045;-26
2023/03/24 13:14:56;;;;;;;7.97;2.55;;;;;;;;;;5017834;28;20407;-24
2023/03/24 13:17:26;;;;;;;8.98;2.30;;;;;;;;;;5000248;28;20472;-23
2023/03/24 13:19:54;;;;;;;14.10;2.38;;;;;;;;;;5017630;28;20120;-24
2023/03/24 13:22:22;;;;;;;11.32;3.13;;;;;;;;;;5017333;28;20021;-23
2023/03/24 13:24:48;;;;;;;18.90;2.90;;;;;;;;;;5017517;28;20105;-24
2023/03/24 13:27:18;;;;;;;11.98;2.58;;;;;;;;;;5017487;28;20512;-22
2023/03/24 13:29:55;;;;;;;9.40;2.45;;;;;;;;;;5017425;28;20021;-25
2023/03/24 13:32:22;;;;;;;8.38;2.60;;;;;;;;;;5017894;28;20030;-22
2023/03/24 13:35:14;;;;;;;20.85;3.10;;;;;;;;;;5017012;28;20026;-22
2023/03/24 13:37:45;;;;;;;12.23;2.70;;;;;;;;;;5013304;28;20041;-26
2023/03/24 13:40:19;;;;;;;11.23;2.50;;;;;;;;;;5017262;28;20109;-22
2023/03/24 13:42:47;;;;;;;15.73;2.83;;;;;;;;;;5016980;28;20041;-22
2023/03/24 13:45:23;;;;;;;11.40;3.05;;;;;;;;;;5017021;28;20084;-24
2023/03/24 13:47:50;;;;;;;8.35;2.40;;;;;;;;;;5017254;28;20042;-22
2023/03/24 13:50:17;;;;;;;6.57;3.08;;;;;;;;;;5017008;28;20038;-22
2023/03/24 13:52:44;;;;;;;7.55;2.90;;;;;;;;;;5017022;28;20025;-22
2023/03/24 13:55:15;;;;;;;9.25;2.50;;;;;;;;;;5016835;28;20522;-27
2023/03/24 13:57:52;;;;;;;8.75;2.83;;;;;;;;;;5016806;28;20029;-23
2023/03/24 14:00:20;;;;;;;8.55;2.55;;;;;;;;;;5017094;28;20401;-25
2023/03/24 14:02:54;;;;;;;14.63;3.22;;;;;;;;;;5016520;28;20125;-24
2023/03/24 14:05:23;;;;;;;9.30;3.28;;;;;;;;;;5016666;28;20022;-24
2023/03/24 14:07:50;;;;;;;10.07;2.58;;;;;;;;;;5016665;28;20022;-24
2023/03/24 14:10:17;;;;;;;9.05;2.63;;;;;;;;;;5016742;28;20037;-22
2023/03/24 14:12:53;;;;;;;7.55;3.13;;;;;;;;;;5016461;28;20022;-24
2023/03/24 14:15:40;;;;;;;8.95;2.88;;;;;;;;;;5016438;28;20096;-22
2023/03/24 14:18:24;;;;;;;7.95;3.08;;;;;;;;;;5016491;28;20030;-21
2023/03/24 14:20:56;;;;;;;11.70;2.60;;;;;;;;;;5016290;28;20022;-23
2023/03/24 14:23:23;;;;;;;8.23;2.60;;;;;;;;;;5015661;28;20034;-23
2023/03/24 14:25:55;;;;;;;6.95;2.55;;;;;;;;;;4998950;28;20108;-23
2023/03/24 14:28:25;;;;;;;9.18;2.67;;;;;;;;;;5016155;28;20100;-22
2023/03/24 14:31:16;;;;;;;10.50;3.03;;;;;;;;;;5016398;28;20125;-22
2023/03/24 14:34:00;;;;;;;11.07;2.40;;;;;;;;;;5016032;28;20087;-21
2023/03/24 14:36:29;;;;;;;8.60;2.72;;;;;;;;;;5016054;28;20168;-22
2023/03/24 14:38:56;;;;;;;14.85;3.17;;;;;;;;;;5016116;28;20041;-22
2023/03/24 14:41:37;;;;;;;8.98;2.55;;;;;;;;;;4998670;28;20357;-24
2023/03/24 14:44:04;;;;;;;13.02;2.78;;;;;;;;;;5015655;28;20092;-22
2023/03/24 14:46:30;;;;;;;4.57;2.35;;;;;;;;;;5015927;28;20032;-23
2023/03/24 14:49:02;;;;;;;13.68;2.65;;;;;;;;;;5015923;28;20022;-22
2023/03/24 14:51:35;;;;;;;16.73;3.13;;;;;;;;;;5016356;28;20520;-24
2023/03/24 14:54:07;;;;;;;5.75;2.80;;;;;;;;;;4998507;28;20527;-22
2023/03/24 14:56:36;;;;;;;10.27;3.25;;;;;;;;;;5015886;28;20080;-22
2023/03/24 14:59:05;;;;;;;12.35;2.90;;;;;;;;;;5015444;28;20517;-22